Time;durP1;ratioP1;P1;durP2;ratioP2;P2;SDS_P1;SDS_P2;PMS_P1;PMS_P2;Temp;Humidity;BMP_temperature;BMP_pressure;BME280_temperature;BME280_humidity;BME280_pressure;Samples;Min_cycle;Max_cycle;Signal;HPM_P1;HPM_P2
2022/06/01 00:09:36;;;;;;;1.58;1.05;;;;;;;17.03;65.11;100966.34;20800851;28;20049;-77
2022/06/01 00:19:37;;;;;;;1.58;1.08;;;;;;;17.12;65.25;100965.56;20801059;28;20068;-78
2022/06/01 00:29:39;;;;;;;1.75;1.00;;;;;;;17.12;65.23;100975.50;20799320;28;20041;-77
2022/06/01 00:39:44;;;;;;;1.10;1.00;;;;;;;17.11;65.28;100977.31;20884732;28;20503;-78
2022/06/01 00:49:59;;;;;;;0.90;0.90;;;;;;;17.08;65.19;100958.75;20799050;28;20041;-78
2022/06/01 01:00:06;;;;;;;1.30;1.20;;;;;;;17.09;65.14;100963.13;20813250;28;20391;-77
2022/06/01 01:10:09;;;;;;;1.90;1.20;;;;;;;17.08;65.07;100959.63;20880728;28;20049;-77
2022/06/01 01:20:11;;;;;;;1.60;1.40;;;;;;;17.02;65.12;100949.38;20880572;28;20578;-77
2022/06/01 01:30:35;;;;;;;1.48;1.33;;;;;;;17.08;64.94;100961.44;20821882;28;20099;-77
2022/06/01 01:40:37;;;;;;;1.30;1.20;;;;;;;17.08;65.18;100950.69;20876660;28;20045;-77
2022/06/01 01:50:38;;;;;;;1.73;1.35;;;;;;;16.93;65.14;100934.81;20879413;28;20044;-77
2022/06/01 02:00:44;;;;;;;1.73;1.33;;;;;;;17.07;65.13;100951.66;20878647;28;20044;-77
2022/06/01 02:21:15;;;;;;;1.60;1.50;;;;;;;16.92;65.13;100930.44;20810170;28;20041;-77
2022/06/01 02:31:17;;;;;;;1.65;1.55;;;;;;;16.94;65.14;100941.91;20875275;28;20056;-77
2022/06/01 02:51:39;;;;;;;1.65;1.52;;;;;;;17.04;65.15;100935.78;20890164;28;20054;-77
2022/06/01 03:01:43;;;;;;;1.50;1.40;;;;;;;17.03;65.02;100947.53;20889187;28;20559;-77
2022/06/01 03:11:44;;;;;;;1.67;1.58;;;;;;;17.02;65.00;100951.19;20888770;28;20044;-77
2022/06/01 03:21:46;;;;;;;1.50;1.40;;;;;;;17.01;65.03;100952.19;20869957;28;20060;-77
2022/06/01 03:31:48;;;;;;;1.65;1.55;;;;;;;17.02;65.12;100959.25;20834591;28;20672;-77
2022/06/01 03:41:49;;;;;;;1.73;1.63;;;;;;;17.00;65.09;100967.44;20803867;28;20049;-77
2022/06/01 03:51:51;;;;;;;2.03;1.67;;;;;;;17.00;65.09;100978.22;20803732;28;20045;-78
2022/06/01 04:01:52;;;;;;;1.65;1.55;;;;;;;17.00;65.34;100972.00;20802153;28;20055;-77
2022/06/01 04:11:54;;;;;;;1.70;1.50;;;;;;;17.00;65.20;100972.81;20784105;28;20448;-77
2022/06/01 04:21:56;;;;;;;1.70;1.60;;;;;;;16.96;65.25;100969.53;20800975;28;20056;-77
2022/06/01 04:32:01;;;;;;;1.92;1.73;;;;;;;16.94;65.54;100974.19;20796604;28;20046;-77
2022/06/01 04:42:03;;;;;;;1.60;1.50;;;;;;;17.00;65.45;100977.38;20833194;28;20639;-77
2022/06/01 04:52:05;;;;;;;1.50;1.40;;;;;;;16.99;65.53;100962.22;20826835;28;20045;-77
2022/06/01 05:02:07;;;;;;;1.80;1.60;;;;;;;16.98;65.50;100955.13;20862350;28;20044;-77
2022/06/01 05:12:09;;;;;;;1.67;1.50;;;;;;;16.75;65.71;100930.97;20800129;28;20041;-78
2022/06/01 05:22:10;;;;;;;1.50;1.40;;;;;;;16.98;65.87;100968.56;20812833;28;20410;-78
2022/06/01 05:32:12;;;;;;;1.65;1.52;;;;;;;16.99;66.33;100975.66;20800285;28;20044;-78
2022/06/01 05:42:14;;;;;;;2.20;1.75;;;;;;;16.96;67.11;100972.22;20818563;28;20459;-78
2022/06/01 05:52:18;;;;;;;2.60;1.98;;;;;;;17.00;68.08;100982.75;20822935;28;20053;-78
2022/06/01 06:02:20;;;;;;;3.28;2.03;;;;;;;17.01;69.05;100984.47;20835870;28;20057;-78
2022/06/01 06:12:22;;;;;;;3.85;2.83;;;;;;;16.94;70.44;100970.63;20865958;28;20051;-77
2022/06/01 06:22:25;;;;;;;5.47;2.47;;;;;;;17.02;71.78;100987.03;20850056;28;20048;-77
2022/06/01 06:32:28;;;;;;;6.72;2.63;;;;;;;17.03;72.42;100993.25;20862658;28;20075;-77
2022/06/01 06:42:30;;;;;;;4.50;2.50;;;;;;;17.06;72.64;101004.63;20881641;28;20521;-77
2022/06/01 06:52:31;;;;;;;4.60;2.60;;;;;;;17.01;72.53;101006.81;20862487;28;20071;-77
2022/06/01 07:02:34;;;;;;;3.85;2.58;;;;;;;17.08;72.78;101026.00;20822526;28;20134;-74
2022/06/01 07:12:35;;;;;;;3.97;2.63;;;;;;;17.08;72.92;101029.56;20755109;28;20092;-75
2022/06/01 07:22:37;;;;;;;6.80;2.90;;;;;;;17.13;73.25;101031.84;20795737;28;20060;-74
2022/06/01 07:32:38;;;;;;;2.90;2.40;;;;;;;17.16;73.21;101019.97;20841503;28;20595;-75
2022/06/01 07:53:02;;;;;;;4.32;1.80;;;;;;;17.37;73.86;101020.00;20823246;28;20156;-73
2022/06/01 08:03:12;;;;;;;7.03;2.00;;;;;;;17.42;73.85;101036.63;20763582;28;20049;-74
2022/06/01 08:13:14;;;;;;;5.03;1.85;;;;;;;17.43;73.36;101075.13;20772743;28;20120;-75
2022/06/01 08:23:16;;;;;;;2.78;1.45;;;;;;;17.40;72.50;101097.78;20853420;28;20045;-77
2022/06/01 08:33:18;;;;;;;5.50;1.45;;;;;;;17.33;72.24;101086.69;20830321;28;20057;-75
2022/06/01 08:43:26;;;;;;;4.90;1.60;;;;;;;17.26;72.03;101069.34;20766203;28;20053;-75
2022/06/01 08:53:29;;;;;;;1.75;1.20;;;;;;;17.21;71.76;101077.78;20787033;28;20056;-75
2022/06/01 09:03:50;;;;;;;2.03;1.00;;;;;;;17.18;71.67;101085.28;20839363;28;20452;-74
2022/06/01 09:14:07;;;;;;;2.33;0.90;;;;;;;17.18;71.47;101087.97;20786205;28;20054;-75
2022/06/01 09:24:09;;;;;;;2.55;0.98;;;;;;;17.20;71.37;101091.38;20809825;28;20049;-75
2022/06/01 09:34:14;;;;;;;1.42;0.80;;;;;;;17.22;71.43;101079.50;20831140;28;20589;-75
2022/06/01 09:44:18;;;;;;;0.87;0.87;;;;;;;17.08;71.32;101052.88;20782166;28;20061;-75
2022/06/01 09:54:20;;;;;;;1.60;1.00;;;;;;;17.26;70.94;101085.47;20770289;28;20068;-74
2022/06/01 10:14:52;;;;;;;0.98;0.70;;;;;;;17.23;70.59;101081.22;20843181;28;20168;-74
2022/06/01 10:25:09;;;;;;;1.08;0.80;;;;;;;17.21;70.64;101076.94;20849289;28;20044;-74
2022/06/01 10:35:20;;;;;;;1.05;0.90;;;;;;;17.20;70.46;101061.78;20793152;28;20058;-74
2022/06/01 10:45:23;;;;;;;1.42;1.00;;;;;;;17.22;70.66;101062.50;20786339;28;20409;-74
2022/06/01 10:55:29;;;;;;;1.25;0.60;;;;;;;17.23;70.56;101064.22;20757347;28;20069;-75
2022/06/01 11:05:57;;;;;;;0.55;0.55;;;;;;;17.09;70.37;101035.78;20843798;28;20052;-74
2022/06/01 11:16:07;;;;;;;1.40;0.90;;;;;;;17.24;70.30;101088.31;20831861;28;20045;-75
2022/06/01 11:26:27;;;;;;;0.52;0.50;;;;;;;17.22;70.76;101113.63;20838598;28;20095;-75
2022/06/01 11:36:40;;;;;;;1.25;0.70;;;;;;;17.25;71.07;101098.09;20829017;28;20068;-75
2022/06/01 11:46:53;;;;;;;1.48;0.70;;;;;;;17.20;71.18;101100.28;20823725;28;20056;-75
2022/06/01 11:57:17;;;;;;;0.73;0.55;;;;;;;17.25;71.50;101133.06;20840005;28;20189;-75
2022/06/01 12:07:30;;;;;;;0.70;0.60;;;;;;;17.22;71.94;101138.69;20825169;28;20045;-75
2022/06/01 12:17:34;;;;;;;4.63;1.30;;;;;;;17.32;79.80;101140.63;20837015;28;20063;-74
2022/06/01 12:38:39;;;;;;;3.00;1.05;;;;;;;17.50;80.70;101138.25;20825891;28;20052;-74
2022/06/01 12:48:40;;;;;;;;;;;;;;;17.50;79.40;101119.41;20786669;28;20132;-75
2022/06/01 12:58:44;;;;;;;1.27;0.90;;;;;;;17.49;78.33;101123.09;20832821;28;19921;-74
2022/06/01 13:08:55;;;;;;;3.72;0.93;;;;;;;17.46;78.01;101118.81;20820261;28;20048;-74
2022/06/01 13:18:57;;;;;;;2.55;0.82;;;;;;;17.46;77.51;101140.34;20842402;28;20181;-75
2022/06/01 13:29:09;;;;;;;1.13;0.80;;;;;;;17.41;77.38;101158.72;20860514;28;20049;-75
2022/06/01 13:39:13;;;;;;;1.83;0.95;;;;;;;17.38;76.56;101157.13;20850952;28;20627;-76
2022/06/01 13:49:17;;;;;;;4.22;0.90;;;;;;;17.44;77.26;101142.31;20853202;28;20048;-76
2022/06/01 13:59:34;;;;;;;2.25;0.77;;;;;;;17.49;76.76;101155.41;20819431;28;20045;-74
2022/06/01 14:09:46;;;;;;;0.65;0.65;;;;;;;17.55;76.18;101146.81;20817596;28;20045;-76
2022/06/01 14:19:47;;;;;;;2.45;0.75;;;;;;;17.53;75.49;101141.53;20840394;28;20057;-76
2022/06/01 14:29:49;;;;;;;0.70;0.65;;;;;;;17.61;74.90;101158.88;20831218;28;20041;-76
2022/06/01 14:39:50;;;;;;;2.47;0.70;;;;;;;17.61;74.27;101164.25;20831806;28;20045;-76
2022/06/01 14:49:52;;;;;;;1.08;0.95;;;;;;;17.52;74.13;101166.75;20843482;28;20073;-75
2022/06/01 14:59:54;;;;;;;1.63;0.90;;;;;;;17.63;73.90;101186.53;20846480;28;20568;-75
2022/06/01 15:09:55;;;;;;;1.20;0.90;;;;;;;17.65;73.40;101198.03;20852177;28;20416;-75
2022/06/01 15:19:57;;;;;;;1.70;0.90;;;;;;;17.52;73.04;101199.03;20855727;28;20041;-75
2022/06/01 15:40:19;;;;;;;2.20;0.70;;;;;;;17.56;72.94;101234.66;20847837;28;20513;-76
2022/06/01 15:50:21;;;;;;;1.27;0.80;;;;;;;17.47;73.11;101217.41;20799279;28;20049;-76
2022/06/01 16:00:24;;;;;;;1.10;1.00;;;;;;;17.57;73.13;101238.19;20834185;28;20066;-76
2022/06/01 16:10:27;;;;;;;0.73;0.63;;;;;;;17.42;72.96;101216.06;20833090;28;20045;-75
2022/06/01 16:20:29;;;;;;;1.25;0.85;;;;;;;17.32;72.46;101234.81;20808737;28;20130;-75
2022/06/01 16:30:31;;;;;;;2.53;0.95;;;;;;;17.38;72.96;101247.78;20834737;28;20068;-75
2022/06/01 16:40:33;;;;;;;2.47;1.00;;;;;;;17.45;72.63;101270.50;20765531;28;20062;-74
2022/06/01 16:50:36;;;;;;;1.42;1.00;;;;;;;17.43;72.76;101274.28;20822255;28;20037;-74
2022/06/01 17:00:37;;;;;;;1.65;0.85;;;;;;;17.39;72.83;101268.31;20848791;28;20045;-74
2022/06/01 17:10:40;;;;;;;2.88;1.13;;;;;;;17.39;72.71;101274.53;20805682;28;20049;-74
2022/06/01 17:20:42;;;;;;;6.63;2.15;;;;;;;17.40;72.90;101307.72;20809324;28;20049;-77
2022/06/01 17:30:45;;;;;;;2.47;1.13;;;;;;;17.42;72.96;101310.28;20840626;28;20071;-75
2022/06/01 17:40:46;;;;;;;2.45;0.90;;;;;;;17.27;72.82;101285.47;20836735;28;20076;-75
2022/06/01 17:50:49;;;;;;;2.05;0.90;;;;;;;17.38;73.23;101305.13;20788999;28;20049;-75
2022/06/01 18:00:51;;;;;;;1.83;1.00;;;;;;;17.25;73.05;101293.66;20802853;28;20151;-76
2022/06/01 18:10:53;;;;;;;2.15;0.80;;;;;;;17.36;73.13;101325.09;20807226;28;20402;-76
2022/06/01 18:20:54;;;;;;;1.83;0.88;;;;;;;17.27;73.43;101315.91;20820166;28;20041;-76
2022/06/01 18:31:03;;;;;;;2.38;0.90;;;;;;;17.34;73.55;101337.81;20774818;28;20549;-76
2022/06/01 18:41:05;;;;;;;1.33;0.73;;;;;;;17.14;73.48;101310.63;20886372;28;20068;-76
2022/06/01 18:51:11;;;;;;;0.95;0.60;;;;;;;17.27;73.73;101339.28;20890901;28;20041;-76
2022/06/01 19:11:34;;;;;;;1.55;0.77;;;;;;;17.20;73.78;101344.28;20855943;28;20041;-76
2022/06/01 19:21:39;;;;;;;1.45;0.70;;;;;;;17.09;73.88;101337.91;20886515;28;20053;-76
2022/06/01 19:31:42;;;;;;;1.73;0.75;;;;;;;17.28;74.13;101386.75;20888216;28;20379;-76
2022/06/01 19:52:05;;;;;;;0.70;0.63;;;;;;;17.25;74.09;101409.34;20884621;28;20063;-76
2022/06/01 20:02:07;;;;;;;1.58;0.70;;;;;;;17.25;74.29;101430.88;20867471;28;20067;-76
2022/06/01 20:22:30;;;;;;;0.70;0.60;;;;;;;17.23;74.37;101447.16;20798139;28;20049;-76
2022/06/01 20:32:32;;;;;;;2.80;0.93;;;;;;;17.21;74.44;101461.69;20783405;28;20364;-76
2022/06/01 20:42:36;;;;;;;0.98;0.73;;;;;;;17.22;74.48;101477.69;20797629;28;20052;-76
2022/06/01 20:52:37;;;;;;;0.90;0.63;;;;;;;17.07;74.29;101479.75;20780531;28;20041;-76
2022/06/01 21:02:39;;;;;;;1.00;0.70;;;;;;;17.18;74.27;101481.59;20797954;28;20095;-76
2022/06/01 21:12:41;;;;;;;0.70;0.70;;;;;;;17.19;74.44;101494.09;20798974;28;20046;-76
2022/06/01 21:22:42;;;;;;;1.05;0.63;;;;;;;17.17;74.33;101501.41;20806819;28;20045;-76
2022/06/01 21:32:45;;;;;;;1.05;0.70;;;;;;;17.14;74.24;101492.75;20814220;28;20075;-76
2022/06/01 21:42:47;;;;;;;1.20;0.75;;;;;;;17.16;74.28;101504.25;20813367;28;20037;-76
2022/06/01 21:52:48;;;;;;;1.17;0.82;;;;;;;17.15;74.27;101519.50;20812726;28;20049;-76
2022/06/01 22:02:50;;;;;;;1.45;0.90;;;;;;;17.14;74.14;101528.56;20807171;28;20099;-76
2022/06/01 22:12:52;;;;;;;0.93;0.55;;;;;;;17.06;74.07;101525.59;20811755;28;20057;-76
2022/06/01 22:22:53;;;;;;;0.98;0.90;;;;;;;17.12;73.90;101546.66;20810506;28;20061;-77
2022/06/01 22:32:55;;;;;;;0.80;0.70;;;;;;;17.10;73.62;101546.78;20806782;28;20075;-77
2022/06/01 22:42:57;;;;;;;1.48;0.93;;;;;;;17.10;73.67;101554.84;20809959;28;20516;-76
2022/06/01 22:53:06;;;;;;;0.75;0.68;;;;;;;17.10;73.36;101554.84;20807198;28;20559;-76
2022/06/01 23:03:08;;;;;;;0.88;0.88;;;;;;;17.09;73.27;101558.53;20806888;28;20049;-76
2022/06/01 23:13:10;;;;;;;0.70;0.70;;;;;;;17.04;73.07;101562.50;20788689;28;20045;-76
2022/06/01 23:23:19;;;;;;;0.73;0.70;;;;;;;17.06;72.87;101576.72;20806477;28;20050;-76
2022/06/01 23:33:34;;;;;;;0.82;0.68;;;;;;;16.86;72.53;101557.50;20805473;28;20041;-76
2022/06/01 23:44:00;;;;;;;1.48;0.75;;;;;;;17.05;72.46;101588.44;20802329;28;20073;-76
2022/06/01 23:54:11;;;;;;;0.80;0.80;;;;;;;17.05;72.26;101591.13;20884203;28;20052;-77
